sensor_id;sensor_type;location;lat;lon;timestamp;temperature;humidity
66576;SHT31;53428;47.686;16.584;2023-04-15T00:01:03;5.15;99.99
66576;SHT31;53428;47.686;16.584;2023-04-15T00:06:03;5.16;99.99
66576;SHT31;53428;47.686;16.584;2023-04-15T00:11:03;5.15;99.99
66576;SHT31;53428;47.686;16.584;2023-04-15T00:16:04;5.32;99.51
66576;SHT31;53428;47.686;16.584;2023-04-15T00:21:04;5.29;99.99
66576;SHT31;53428;47.686;16.584;2023-04-15T00:26:03;5.28;99.99
66576;SHT31;53428;47.686;16.584;2023-04-15T00:31:03;5.16;99.99
66576;SHT31;53428;47.686;16.584;2023-04-15T00:36:03;5.29;99.99
66576;SHT31;53428;47.686;16.584;2023-04-15T00:41:03;5.18;99.99
66576;SHT31;53428;47.686;16.584;2023-04-15T00:46:03;5.21;99.99
66576;SHT31;53428;47.686;16.584;2023-04-15T00:51:03;5.28;99.99
66576;SHT31;53428;47.686;16.584;2023-04-15T00:56:03;5.23;99.99
66576;SHT31;53428;47.686;16.584;2023-04-15T01:01:03;5.32;99.99
66576;SHT31;53428;47.686;16.584;2023-04-15T01:06:02;5.29;99.99
66576;SHT31;53428;47.686;16.584;2023-04-15T01:11:02;5.26;99.99
66576;SHT31;53428;47.686;16.584;2023-04-15T01:16:01;5.18;99.99
66576;SHT31;53428;47.686;16.584;2023-04-15T01:21:01;5.25;99.99
66576;SHT31;53428;47.686;16.584;2023-04-15T01:26:02;5.18;99.99
66576;SHT31;53428;47.686;16.584;2023-04-15T01:31:09;5.16;99.99
66576;SHT31;53428;47.686;16.584;2023-04-15T01:36:09;5.13;99.99
66576;SHT31;53428;47.686;16.584;2023-04-15T01:41:09;5.13;99.99
66576;SHT31;53428;47.686;16.584;2023-04-15T01:46:08;5.12;99.99
66576;SHT31;53428;47.686;16.584;2023-04-15T01:51:08;5.11;99.99
66576;SHT31;53428;47.686;16.584;2023-04-15T01:56:07;5.07;99.99
66576;SHT31;53428;47.686;16.584;2023-04-15T02:01:07;5.08;99.99
66576;SHT31;53428;47.686;16.584;2023-04-15T02:06:08;5.09;99.99
66576;SHT31;53428;47.686;16.584;2023-04-15T02:11:07;5.08;99.99
66576;SHT31;53428;47.686;16.584;2023-04-15T02:16:17;5.11;99.99
66576;SHT31;53428;47.686;16.584;2023-04-15T02:21:16;5.05;99.99
66576;SHT31;53428;47.686;16.584;2023-04-15T02:26:16;5.05;99.99
66576;SHT31;53428;47.686;16.584;2023-04-15T02:31:16;5.02;99.99
66576;SHT31;53428;47.686;16.584;2023-04-15T02:36:15;5.04;99.99
66576;SHT31;53428;47.686;16.584;2023-04-15T02:41:14;5.04;99.99
66576;SHT31;53428;47.686;16.584;2023-04-15T02:46:14;5.02;99.99
66576;SHT31;53428;47.686;16.584;2023-04-15T02:51:16;5.01;99.99
66576;SHT31;53428;47.686;16.584;2023-04-15T02:56:17;5.02;99.99
66576;SHT31;53428;47.686;16.584;2023-04-15T03:01:17;5.07;99.99
66576;SHT31;53428;47.686;16.584;2023-04-15T03:06:18;5.05;99.99
66576;SHT31;53428;47.686;16.584;2023-04-15T03:11:18;5.08;99.99
66576;SHT31;53428;47.686;16.584;2023-04-15T03:16:18;5.05;99.99
66576;SHT31;53428;47.686;16.584;2023-04-15T03:21:17;5.08;99.99
66576;SHT31;53428;47.686;16.584;2023-04-15T03:26:28;5.05;99.99
66576;SHT31;53428;47.686;16.584;2023-04-15T03:31:27;5.02;99.99
66576;SHT31;53428;47.686;16.584;2023-04-15T03:36:28;5.05;99.99
66576;SHT31;53428;47.686;16.584;2023-04-15T03:41:29;5.05;99.99
66576;SHT31;53428;47.686;16.584;2023-04-15T03:46:28;5.04;99.99
66576;SHT31;53428;47.686;16.584;2023-04-15T03:51:28;5.07;99.99
66576;SHT31;53428;47.686;16.584;2023-04-15T03:56:27;5.04;99.99
66576;SHT31;53428;47.686;16.584;2023-04-15T04:01:27;5.11;99.99
66576;SHT31;53428;47.686;16.584;2023-04-15T04:06:26;5.05;99.99
66576;SHT31;53428;47.686;16.584;2023-04-15T04:11:25;5.12;99.99
66576;SHT31;53428;47.686;16.584;2023-04-15T04:16:26;5.12;99.99
66576;SHT31;53428;47.686;16.584;2023-04-15T04:21:25;5.12;99.99
66576;SHT31;53428;47.686;16.584;2023-04-15T04:26:24;5.15;99.99
66576;SHT31;53428;47.686;16.584;2023-04-15T04:31:23;5.19;99.99
66576;SHT31;53428;47.686;16.584;2023-04-15T04:36:23;5.23;99.99
66576;SHT31;53428;47.686;16.584;2023-04-15T04:41:22;5.29;99.99
66576;SHT31;53428;47.686;16.584;2023-04-15T04:46:22;5.33;99.99
66576;SHT31;53428;47.686;16.584;2023-04-15T04:51:21;5.39;99.99
66576;SHT31;53428;47.686;16.584;2023-04-15T04:56:21;5.43;99.99
66576;SHT31;53428;47.686;16.584;2023-04-15T05:01:20;5.47;99.99
66576;SHT31;53428;47.686;16.584;2023-04-15T05:06:19;5.66;99.99
66576;SHT31;53428;47.686;16.584;2023-04-15T05:11:18;5.83;99.99
66576;SHT31;53428;47.686;16.584;2023-04-15T05:16:17;5.80;99.99
66576;SHT31;53428;47.686;16.584;2023-04-15T05:21:18;6.00;99.99
66576;SHT31;53428;47.686;16.584;2023-04-15T05:26:17;5.94;99.99
66576;SHT31;53428;47.686;16.584;2023-04-15T05:31:16;5.98;99.99
66576;SHT31;53428;47.686;16.584;2023-04-15T05:36:15;6.04;99.99
66576;SHT31;53428;47.686;16.584;2023-04-15T05:41:15;6.01;99.99
66576;SHT31;53428;47.686;16.584;2023-04-15T05:46:14;6.14;99.99
66576;SHT31;53428;47.686;16.584;2023-04-15T05:51:13;6.15;99.99
66576;SHT31;53428;47.686;16.584;2023-04-15T05:56:13;6.14;99.99
66576;SHT31;53428;47.686;16.584;2023-04-15T06:01:12;6.24;99.99
66576;SHT31;53428;47.686;16.584;2023-04-15T06:06:11;6.26;99.99
66576;SHT31;53428;47.686;16.584;2023-04-15T06:11:11;6.29;99.99
66576;SHT31;53428;47.686;16.584;2023-04-15T06:16:10;6.28;99.99
66576;SHT31;53428;47.686;16.584;2023-04-15T06:21:09;6.39;99.99
66576;SHT31;53428;47.686;16.584;2023-04-15T06:26:09;6.35;99.99
66576;SHT31;53428;47.686;16.584;2023-04-15T06:31:08;6.35;99.99
66576;SHT31;53428;47.686;16.584;2023-04-15T06:36:08;6.33;99.99
66576;SHT31;53428;47.686;16.584;2023-04-15T06:41:07;6.38;99.99
66576;SHT31;53428;47.686;16.584;2023-04-15T06:46:06;6.43;99.99
66576;SHT31;53428;47.686;16.584;2023-04-15T06:51:06;6.48;99.99
66576;SHT31;53428;47.686;16.584;2023-04-15T06:56:07;6.69;99.99
66576;SHT31;53428;47.686;16.584;2023-04-15T07:01:06;6.75;99.99
66576;SHT31;53428;47.686;16.584;2023-04-15T07:06:05;6.77;99.99
66576;SHT31;53428;47.686;16.584;2023-04-15T07:11:06;6.84;99.99
66576;SHT31;53428;47.686;16.584;2023-04-15T07:16:05;6.93;99.99
66576;SHT31;53428;47.686;16.584;2023-04-15T07:21:04;7.08;99.99
66576;SHT31;53428;47.686;16.584;2023-04-15T07:26:04;7.34;99.99
66576;SHT31;53428;47.686;16.584;2023-04-15T07:31:03;7.35;99.26
66576;SHT31;53428;47.686;16.584;2023-04-15T07:36:02;7.67;99.47
66576;SHT31;53428;47.686;16.584;2023-04-15T07:41:02;7.52;99.99
66576;SHT31;53428;47.686;16.584;2023-04-15T07:46:01;7.77;99.99
66576;SHT31;53428;47.686;16.584;2023-04-15T07:51:00;7.77;98.76
66576;SHT31;53428;47.686;16.584;2023-04-15T07:56:00;7.48;98.75
66576;SHT31;53428;47.686;16.584;2023-04-15T08:00:59;7.55;99.68
66576;SHT31;53428;47.686;16.584;2023-04-15T08:05:59;7.89;99.90
66576;SHT31;53428;47.686;16.584;2023-04-15T08:10:58;7.94;98.21
66576;SHT31;53428;47.686;16.584;2023-04-15T08:16:20;8.03;98.67
66576;SHT31;53428;47.686;16.584;2023-04-15T08:21:20;8.21;99.67
66576;SHT31;53428;47.686;16.584;2023-04-15T08:26:20;8.04;98.41
66576;SHT31;53428;47.686;16.584;2023-04-15T08:31:19;7.97;99.04
66576;SHT31;53428;47.686;16.584;2023-04-15T08:36:19;7.80;99.07
66576;SHT31;53428;47.686;16.584;2023-04-15T08:41:21;7.82;99.68
66576;SHT31;53428;47.686;16.584;2023-04-15T08:46:24;8.39;99.25
66576;SHT31;53428;47.686;16.584;2023-04-15T08:51:25;8.48;96.52
66576;SHT31;53428;47.686;16.584;2023-04-15T08:56:27;8.56;95.97
66576;SHT31;53428;47.686;16.584;2023-04-15T09:01:28;8.59;97.28
66576;SHT31;53428;47.686;16.584;2023-04-15T09:06:28;8.76;96.43
66576;SHT31;53428;47.686;16.584;2023-04-15T09:11:29;9.00;95.35
66576;SHT31;53428;47.686;16.584;2023-04-15T09:16:29;9.10;94.71
66576;SHT31;53428;47.686;16.584;2023-04-15T09:21:30;9.51;96.58
66576;SHT31;53428;47.686;16.584;2023-04-15T09:26:34;9.72;94.56
66576;SHT31;53428;47.686;16.584;2023-04-15T09:31:37;9.99;94.56
66576;SHT31;53428;47.686;16.584;2023-04-15T09:36:55;10.14;90.91
66576;SHT31;53428;47.686;16.584;2023-04-15T09:42:06;10.13;90.51
66576;SHT31;53428;47.686;16.584;2023-04-15T09:47:06;10.31;90.12
66576;SHT31;53428;47.686;16.584;2023-04-15T09:52:05;9.89;90.23
66576;SHT31;53428;47.686;16.584;2023-04-15T09:57:08;9.81;90.75
66576;SHT31;53428;47.686;16.584;2023-04-15T10:02:12;9.90;90.82
66576;SHT31;53428;47.686;16.584;2023-04-15T10:07:11;10.03;90.18
66576;SHT31;53428;47.686;16.584;2023-04-15T10:12:11;9.51;89.08
66576;SHT31;53428;47.686;16.584;2023-04-15T10:17:12;9.38;92.72
66576;SHT31;53428;47.686;16.584;2023-04-15T10:22:13;9.52;91.36
66576;SHT31;53428;47.686;16.584;2023-04-15T10:27:13;9.28;92.75
66576;SHT31;53428;47.686;16.584;2023-04-15T10:32:13;9.52;93.12
66576;SHT31;53428;47.686;16.584;2023-04-15T10:37:19;9.58;92.75
66576;SHT31;53428;47.686;16.584;2023-04-15T10:42:19;9.56;93.63
66576;SHT31;53428;47.686;16.584;2023-04-15T10:47:20;9.82;91.59
66576;SHT31;53428;47.686;16.584;2023-04-15T10:52:25;10.17;92.11
66576;SHT31;53428;47.686;16.584;2023-04-15T10:57:33;10.04;91.85
66576;SHT31;53428;47.686;16.584;2023-04-15T11:12:39;9.93;91.27
66576;SHT31;53428;47.686;16.584;2023-04-15T11:17:39;9.87;92.88
66576;SHT31;53428;47.686;16.584;2023-04-15T11:22:49;9.27;95.14
66576;SHT31;53428;47.686;16.584;2023-04-15T11:27:49;8.99;95.02
66576;SHT31;53428;47.686;16.584;2023-04-15T11:32:49;8.66;90.53
66576;SHT31;53428;47.686;16.584;2023-04-15T11:37:49;8.56;93.72
66576;SHT31;53428;47.686;16.584;2023-04-15T11:43:12;8.77;94.15
66576;SHT31;53428;47.686;16.584;2023-04-15T11:48:12;9.41;91.67
66576;SHT31;53428;47.686;16.584;2023-04-15T11:53:12;9.41;92.01
66576;SHT31;53428;47.686;16.584;2023-04-15T11:58:14;9.47;91.68
66576;SHT31;53428;47.686;16.584;2023-04-15T12:03:27;9.83;92.70
66576;SHT31;53428;47.686;16.584;2023-04-15T12:08:47;9.61;94.18
66576;SHT31;53428;47.686;16.584;2023-04-15T12:13:48;10.25;94.22
66576;SHT31;53428;47.686;16.584;2023-04-15T12:18:56;10.65;91.11
66576;SHT31;53428;47.686;16.584;2023-04-15T12:23:56;10.17;91.84
66576;SHT31;53428;47.686;16.584;2023-04-15T12:29:09;9.45;93.01
66576;SHT31;53428;47.686;16.584;2023-04-15T12:34:09;9.28;93.00
66576;SHT31;53428;47.686;16.584;2023-04-15T12:39:08;9.45;92.31
66576;SHT31;53428;47.686;16.584;2023-04-15T12:44:07;9.90;91.29
66576;SHT31;53428;47.686;16.584;2023-04-15T12:49:07;9.78;87.48
66576;SHT31;53428;47.686;16.584;2023-04-15T12:54:07;9.96;88.72
66576;SHT31;53428;47.686;16.584;2023-04-15T12:59:06;10.27;84.37
66576;SHT31;53428;47.686;16.584;2023-04-15T13:04:06;10.85;81.11
66576;SHT31;53428;47.686;16.584;2023-04-15T13:09:05;11.15;81.75
66576;SHT31;53428;47.686;16.584;2023-04-15T13:14:06;10.65;80.63
66576;SHT31;53428;47.686;16.584;2023-04-15T13:19:06;10.12;82.58
66576;SHT31;53428;47.686;16.584;2023-04-15T13:24:05;9.83;86.04
66576;SHT31;53428;47.686;16.584;2023-04-15T13:29:04;9.42;88.25
66576;SHT31;53428;47.686;16.584;2023-04-15T13:34:03;9.38;89.32
66576;SHT31;53428;47.686;16.584;2023-04-15T13:39:03;9.51;89.72
66576;SHT31;53428;47.686;16.584;2023-04-15T13:44:03;9.51;93.35
66576;SHT31;53428;47.686;16.584;2023-04-15T13:49:03;9.49;92.46
66576;SHT31;53428;47.686;16.584;2023-04-15T13:54:02;9.27;94.00
66576;SHT31;53428;47.686;16.584;2023-04-15T13:59:02;9.38;90.32
66576;SHT31;53428;47.686;16.584;2023-04-15T14:04:01;9.37;92.53
66576;SHT31;53428;47.686;16.584;2023-04-15T14:09:00;9.49;89.86
66576;SHT31;53428;47.686;16.584;2023-04-15T14:13:59;9.37;94.99
66576;SHT31;53428;47.686;16.584;2023-04-15T14:19:00;9.21;95.53
66576;SHT31;53428;47.686;16.584;2023-04-15T14:23:59;9.21;95.96
66576;SHT31;53428;47.686;16.584;2023-04-15T14:28:59;9.61;97.11
66576;SHT31;53428;47.686;16.584;2023-04-15T14:33:59;10.55;91.41
66576;SHT31;53428;47.686;16.584;2023-04-15T14:38:58;10.86;89.12
66576;SHT31;53428;47.686;16.584;2023-04-15T14:43:58;11.19;87.85
66576;SHT31;53428;47.686;16.584;2023-04-15T14:48:57;10.96;87.07
66576;SHT31;53428;47.686;16.584;2023-04-15T14:53:56;12.54;80.21
66576;SHT31;53428;47.686;16.584;2023-04-15T14:58:56;11.48;78.99
66576;SHT31;53428;47.686;16.584;2023-04-15T15:03:58;10.81;79.71
66576;SHT31;53428;47.686;16.584;2023-04-15T15:08:58;10.71;81.58
66576;SHT31;53428;47.686;16.584;2023-04-15T15:13:59;10.23;82.35
66576;SHT31;53428;47.686;16.584;2023-04-15T15:18:58;10.51;79.99
66576;SHT31;53428;47.686;16.584;2023-04-15T15:23:59;10.47;82.25
66576;SHT31;53428;47.686;16.584;2023-04-15T15:28:58;10.04;82.04
66576;SHT31;53428;47.686;16.584;2023-04-15T15:33:57;9.75;82.70
66576;SHT31;53428;47.686;16.584;2023-04-15T15:38:57;9.58;90.28
66576;SHT31;53428;47.686;16.584;2023-04-15T15:43:56;9.47;91.78
66576;SHT31;53428;47.686;16.584;2023-04-15T15:48:56;9.63;94.14
66576;SHT31;53428;47.686;16.584;2023-04-15T15:53:55;9.54;93.63
66576;SHT31;53428;47.686;16.584;2023-04-15T15:58:54;9.49;93.49
66576;SHT31;53428;47.686;16.584;2023-04-15T16:03:54;9.44;94.07
66576;SHT31;53428;47.686;16.584;2023-04-15T16:08:53;9.24;95.60
66576;SHT31;53428;47.686;16.584;2023-04-15T16:13:52;9.34;96.16
66576;SHT31;53428;47.686;16.584;2023-04-15T16:18:51;9.27;95.98
66576;SHT31;53428;47.686;16.584;2023-04-15T16:23:51;9.16;96.03
66576;SHT31;53428;47.686;16.584;2023-04-15T16:28:50;9.08;97.70
66576;SHT31;53428;47.686;16.584;2023-04-15T16:33:49;8.99;98.21
66576;SHT31;53428;47.686;16.584;2023-04-15T16:38:48;8.96;98.68
66576;SHT31;53428;47.686;16.584;2023-04-15T16:43:48;8.80;97.86
66576;SHT31;53428;47.686;16.584;2023-04-15T16:48:47;8.80;98.63
66576;SHT31;53428;47.686;16.584;2023-04-15T16:53:47;8.81;98.85
66576;SHT31;53428;47.686;16.584;2023-04-15T16:58:46;8.72;99.46
66576;SHT31;53428;47.686;16.584;2023-04-15T17:03:46;8.63;99.99
66576;SHT31;53428;47.686;16.584;2023-04-15T17:08:45;8.65;99.99
66576;SHT31;53428;47.686;16.584;2023-04-15T17:13:45;8.65;99.69
66576;SHT31;53428;47.686;16.584;2023-04-15T17:18:44;8.48;99.99
66576;SHT31;53428;47.686;16.584;2023-04-15T17:23:45;8.38;99.99
66576;SHT31;53428;47.686;16.584;2023-04-15T17:28:45;8.35;99.99
66576;SHT31;53428;47.686;16.584;2023-04-15T17:33:44;8.21;99.99
66576;SHT31;53428;47.686;16.584;2023-04-15T17:38:44;8.24;99.99
66576;SHT31;53428;47.686;16.584;2023-04-15T17:43:43;8.12;99.99
66576;SHT31;53428;47.686;16.584;2023-04-15T17:48:43;7.89;99.99
66576;SHT31;53428;47.686;16.584;2023-04-15T17:53:43;7.67;99.99
66576;SHT31;53428;47.686;16.584;2023-04-15T17:58:43;7.59;99.99
66576;SHT31;53428;47.686;16.584;2023-04-15T18:03:43;7.51;99.99
66576;SHT31;53428;47.686;16.584;2023-04-15T18:08:42;7.52;99.99
66576;SHT31;53428;47.686;16.584;2023-04-15T18:13:42;7.46;99.99
66576;SHT31;53428;47.686;16.584;2023-04-15T18:18:41;7.46;99.99
66576;SHT31;53428;47.686;16.584;2023-04-15T18:23:41;7.29;99.99
66576;SHT31;53428;47.686;16.584;2023-04-15T18:28:40;7.11;99.99
66576;SHT31;53428;47.686;16.584;2023-04-15T18:33:40;7.00;99.99
66576;SHT31;53428;47.686;16.584;2023-04-15T18:38:39;7.00;99.99
66576;SHT31;53428;47.686;16.584;2023-04-15T18:43:39;6.87;99.99
66576;SHT31;53428;47.686;16.584;2023-04-15T18:48:39;6.70;99.99
66576;SHT31;53428;47.686;16.584;2023-04-15T18:53:38;6.63;99.99
66576;SHT31;53428;47.686;16.584;2023-04-15T18:58:38;6.75;99.99
66576;SHT31;53428;47.686;16.584;2023-04-15T19:03:37;6.77;99.99
66576;SHT31;53428;47.686;16.584;2023-04-15T19:08:36;6.70;99.99
66576;SHT31;53428;47.686;16.584;2023-04-15T19:13:36;6.46;99.99
66576;SHT31;53428;47.686;16.584;2023-04-15T19:18:35;6.48;99.99
66576;SHT31;53428;47.686;16.584;2023-04-15T19:23:35;6.50;99.99
66576;SHT31;53428;47.686;16.584;2023-04-15T19:28:35;6.46;99.99
66576;SHT31;53428;47.686;16.584;2023-04-15T19:33:34;6.42;99.99
66576;SHT31;53428;47.686;16.584;2023-04-15T19:38:34;6.43;99.99
66576;SHT31;53428;47.686;16.584;2023-04-15T19:43:36;6.46;99.99
66576;SHT31;53428;47.686;16.584;2023-04-15T19:48:36;6.46;99.99
66576;SHT31;53428;47.686;16.584;2023-04-15T19:53:35;6.56;99.99
66576;SHT31;53428;47.686;16.584;2023-04-15T19:58:34;6.49;99.99
66576;SHT31;53428;47.686;16.584;2023-04-15T20:03:34;6.54;99.99
66576;SHT31;53428;47.686;16.584;2023-04-15T20:08:33;6.57;99.99
66576;SHT31;53428;47.686;16.584;2023-04-15T20:13:32;6.54;99.99
66576;SHT31;53428;47.686;16.584;2023-04-15T20:18:33;6.46;99.99
66576;SHT31;53428;47.686;16.584;2023-04-15T20:23:32;6.53;99.99
66576;SHT31;53428;47.686;16.584;2023-04-15T20:28:34;6.53;99.99
66576;SHT31;53428;47.686;16.584;2023-04-15T20:33:34;6.50;99.99
66576;SHT31;53428;47.686;16.584;2023-04-15T20:38:33;6.52;99.99
66576;SHT31;53428;47.686;16.584;2023-04-15T20:43:33;6.50;99.99
66576;SHT31;53428;47.686;16.584;2023-04-15T20:48:32;6.46;99.99
66576;SHT31;53428;47.686;16.584;2023-04-15T20:53:31;6.40;99.99
66576;SHT31;53428;47.686;16.584;2023-04-15T20:58:31;6.39;99.99
66576;SHT31;53428;47.686;16.584;2023-04-15T21:03:30;6.40;99.99
66576;SHT31;53428;47.686;16.584;2023-04-15T21:08:29;6.36;99.99
66576;SHT31;53428;47.686;16.584;2023-04-15T21:13:29;6.29;99.99
66576;SHT31;53428;47.686;16.584;2023-04-15T21:18:28;6.17;99.99
66576;SHT31;53428;47.686;16.584;2023-04-15T21:23:28;6.08;99.99
66576;SHT31;53428;47.686;16.584;2023-04-15T21:28:27;5.98;99.99
66576;SHT31;53428;47.686;16.584;2023-04-15T21:33:27;5.91;99.99
66576;SHT31;53428;47.686;16.584;2023-04-15T21:38:27;5.97;99.99
66576;SHT31;53428;47.686;16.584;2023-04-15T21:43:27;6.02;99.99
66576;SHT31;53428;47.686;16.584;2023-04-15T21:48:26;6.09;99.99
66576;SHT31;53428;47.686;16.584;2023-04-15T21:53:26;6.09;99.99
66576;SHT31;53428;47.686;16.584;2023-04-15T21:58:25;6.07;99.99
66576;SHT31;53428;47.686;16.584;2023-04-15T22:03:27;6.04;99.99
66576;SHT31;53428;47.686;16.584;2023-04-15T22:08:26;6.01;99.99
66576;SHT31;53428;47.686;16.584;2023-04-15T22:13:26;6.01;99.99
66576;SHT31;53428;47.686;16.584;2023-04-15T22:18:25;5.98;99.99
66576;SHT31;53428;47.686;16.584;2023-04-15T22:23:24;5.95;99.99
66576;SHT31;53428;47.686;16.584;2023-04-15T22:28:23;6.00;99.99
66576;SHT31;53428;47.686;16.584;2023-04-15T22:33:23;5.98;99.99
66576;SHT31;53428;47.686;16.584;2023-04-15T22:38:24;6.04;99.99
66576;SHT31;53428;47.686;16.584;2023-04-15T22:43:23;5.98;99.99
66576;SHT31;53428;47.686;16.584;2023-04-15T22:48:23;5.94;99.99
66576;SHT31;53428;47.686;16.584;2023-04-15T22:53:23;5.88;99.99
66576;SHT31;53428;47.686;16.584;2023-04-15T22:58:22;5.75;99.99
66576;SHT31;53428;47.686;16.584;2023-04-15T23:03:21;5.74;99.99
66576;SHT31;53428;47.686;16.584;2023-04-15T23:08:21;5.98;99.99
66576;SHT31;53428;47.686;16.584;2023-04-15T23:13:21;5.95;99.99
66576;SHT31;53428;47.686;16.584;2023-04-15T23:18:20;5.90;99.99
66576;SHT31;53428;47.686;16.584;2023-04-15T23:23:20;5.88;99.99
66576;SHT31;53428;47.686;16.584;2023-04-15T23:28:19;5.97;99.99
66576;SHT31;53428;47.686;16.584;2023-04-15T23:33:19;5.98;99.99
66576;SHT31;53428;47.686;16.584;2023-04-15T23:38:18;6.00;99.99
66576;SHT31;53428;47.686;16.584;2023-04-15T23:43:17;6.15;99.99
66576;SHT31;53428;47.686;16.584;2023-04-15T23:48:16;6.17;99.99
66576;SHT31;53428;47.686;16.584;2023-04-15T23:53:16;6.17;99.99
66576;SHT31;53428;47.686;16.584;2023-04-15T23:58:15;6.09;99.99
